Shark River Hills, New Jersey
Current Conditions -  °F | °C
As of 7:15 PM on Friday 24 Oct 2014 (Local Time) from KBLM Reporting Station
Broken Clouds Broken Clouds  
Wind Chill: 57°   Ceiling: 5500
Heat Index: 57°   Visibility: 10mi
Dew Point: 46°   Wind: 5mph
Humidity: 67%   Direction: 90°E
Pressure: 29.81"   Gusts: NA
Location:  40.2205°N, 74.0818°W
Report Text: KBLM 242315Z AUTO 09004KT 10SM BKN055 14/08 A2981 RMK AO1
Loading
Personal Weather Stations






























Interactive Weather Map
Tropical Storm Tracking
New forecast layout! Learn more

10-Day Weather Forecast

Advertisements
Track Severe Weather on mobile